Humbie, United Kingdom
Current Conditions -  °F | °C
As of 6:20 PM on Thursday 29 Jan 2015 (Local Time) from EGPH Reporting Station
Clear Clear  
Wind Chill: 23°   Ceiling: Unl
Heat Index: 30°   Visibility: 6mi
Dew Point: 28°   Wind: 7mph
Humidity: 93%   Direction: 250°WSW
Pressure: 28.73"   Gusts: NA
Location:  55.87°N, 2.88°W
Report Text: EGPH 291820Z 25006KT CAVOK M01/M02 Q0973
Loading
Personal Weather Stations






























Interactive Weather Map New forecast layout! Learn more

10-Day Weather Forecast

Advertisements
Track Severe Weather on mobile